Dades meteomassalio
Diari Summary for Juliol 14, 2017 Units:  English    Metric   Both
« Previous Day
Next Day »
Diari Semanal Mensual Anual Personalitzat
  Maxima: Minima: Mijana:
Temperatura: TemperatureC °F 20.2 °F 26.4 °F
Rosada: DewpointC °F 11.4 °F 13.9 °F
Humitat: Humidity % 32 % 47 %
Velocitat del vent: WindSpeedKMH mph 0.0 mph 6 mph
Racha vent: WindSpeedGustKMH mph - -
Vent:- - WSW
Pressio: PressurehPa in 1013.8 in -
Pluja: 0.0 in    
Historical Graphs
 
 
Tabular Data for Juliol 14, 2017
Time Temperature Dew Point Pressure Wind Wind Speed Wind Gust Humidity Rainfall Rate (Hourly) solar Conditions
TemperatureC °F DewpointC °F PressurehPa in Calm     Humidity % HourlyPrecipMM in SolarRadiationWatts/m^2 W/m2 Conditions
00:00 29.2 °F 14.2 °F 1015.8 in WSW 3.2 mph   40 % 0.0 in 0.0 W/m2 CLR
00:05 29.1 °F 14.1 °F 1016.1 in Calm     40 % 0.0 in 0.0 W/m2 CLR
00:10 29.0 °F 14.1 °F 1016.1 in Calm     40 % 0.0 in 0.0 W/m2 CLR
00:15 28.9 °F 14.3 °F 1016.1 in WSW 4.8 mph   41 % 0.0 in 0.0 W/m2 CLR
00:20 28.8 °F 14.2 °F 1016.1 in WNW 13.0 mph 13.0 mph 41 % 0.0 in 0.0 W/m2 CLR
00:25 28.7 °F 14.1 °F 1016.1 in Calm     41 % 0.0 in 0.0 W/m2 CLR
00:30 28.6 °F 14.1 °F 1016.5 in WNW 14.8 mph 14.8 mph 41 % 0.0 in 0.0 W/m2 CLR
00:35 28.5 °F 13.9 °F 1016.5 in Calm     41 % 0.0 in 0.0 W/m2 CLR
00:40 28.4 °F 14.2 °F 1016.5 in Calm     42 % 0.0 in 0.0 W/m2 CLR
00:45 28.3 °F 14.2 °F 1016.5 in WSW 1.9 mph   42 % 0.0 in 0.0 W/m2 CLR
00:50 28.2 °F 14.1 °F 1016.5 in West 14.8 mph 14.8 mph 42 % 0.0 in 0.0 W/m2 CLR
00:55 28.1 °F 14.3 °F 1016.5 in WSW 11.1 mph 11.1 mph 43 % 0.0 in 0.0 W/m2 CLR
01:00 27.9 °F 14.2 °F 1016.5 in West 13.0 mph 13.0 mph 43 % 0.0 in 0.0 W/m2 CLR
01:05 27.8 °F 14.4 °F 1016.5 in West 9.3 mph 9.3 mph 44 % 0.0 in 0.0 W/m2 CLR
01:10 27.6 °F 14.3 °F 1016.5 in West 9.7 mph 9.7 mph 44 % 0.0 in 0.0 W/m2 CLR
01:15 27.5 °F 14.2 °F 1016.5 in West 6.4 mph 6.4 mph 44 % 0.0 in 0.0 W/m2 CLR
01:20 27.4 °F 14.4 °F 1016.5 in Calm     45 % 0.0 in 0.0 W/m2 CLR
01:25 27.3 °F 14.3 °F 1016.5 in WNW 8.0 mph 8.0 mph 45 % 0.0 in 0.0 W/m2 CLR
01:30 27.2 °F 14.6 °F 1016.5 in NW 8.0 mph 8.0 mph 46 % 0.0 in 0.0 W/m2 CLR
01:35 26.9 °F 14.3 °F 1016.5 in WNW 13.0 mph 13.0 mph 46 % 0.0 in 0.0 W/m2 CLR
01:40 26.8 °F 14.5 °F 1016.8 in WNW 18.5 mph 18.5 mph 47 % 0.0 in 0.0 W/m2 CLR
01:45 26.6 °F 14.4 °F 1016.8 in Calm     47 % 0.0 in 0.0 W/m2 CLR
01:50 26.5 °F 14.3 °F 1016.8 in WNW 8.0 mph 8.0 mph 47 % 0.0 in 0.0 W/m2 CLR
01:55 26.3 °F 14.4 °F 1016.8 in NW 7.4 mph 7.4 mph 48 % 0.0 in 0.0 W/m2 CLR
02:00 26.2 °F 14.3 °F 1016.8 in NW 7.4 mph 7.4 mph 48 % 0.0 in 0.0 W/m2 CLR
02:05 26.0 °F 14.4 °F 1016.8 in NW 7.4 mph 7.4 mph 49 % 0.0 in 0.0 W/m2 CLR
02:10 25.8 °F 14.3 °F 1016.8 in NW 11.1 mph 11.1 mph 49 % 0.0 in 0.0 W/m2 CLR
02:11 25.8 °F 14.3 °F 1016.8 in NW 11.1 mph 11.1 mph 49 % 0.0 in 0.0 W/m2 CLR
02:15 25.6 °F 14.4 °F 1016.8 in West 5.6 mph 5.6 mph 50 % 0.0 in 0.0 W/m2 CLR
02:21 25.4 °F 14.3 °F 1016.8 in Calm     50 % 0.0 in 0.0 W/m2 CLR
02:26 25.3 °F 15.0 °F 1016.8 in Calm     53 % 0.0 in 0.0 W/m2 CLR
02:31 24.9 °F 14.7 °F 1016.8 in NNW 1.6 mph 1.6 mph 53 % 0.0 in 0.0 W/m2 CLR
02:36 24.7 °F 14.7 °F 1016.8 in NW 7.4 mph 7.4 mph 54 % 0.0 in 0.0 W/m2 CLR
02:41 24.4 °F 14.8 °F 1016.8 in Calm     55 % 0.0 in 0.0 W/m2 CLR
02:46 24.3 °F 14.1 °F 1016.8 in West 5.6 mph 5.6 mph 53 % 0.0 in 0.0 W/m2 CLR
02:51 24.3 °F 13.8 °F 1016.8 in West 5.6 mph 5.6 mph 52 % 0.0 in 0.0 W/m2 CLR
02:56 24.3 °F 13.8 °F 1016.8 in West 8.0 mph 8.0 mph 52 % 0.0 in 0.0 W/m2 CLR
03:01 24.2 °F 13.4 °F 1016.8 in West 7.4 mph 7.4 mph 51 % 0.0 in 0.0 W/m2 CLR
03:06 24.1 °F 13.6 °F 1016.8 in WNW 11.1 mph 11.1 mph 52 % 0.0 in 0.0 W/m2 CLR
03:11 24.0 °F 13.6 °F 1016.8 in WNW 5.6 mph   52 % 0.0 in 0.0 W/m2 CLR
03:16 23.9 °F 13.4 °F 1016.8 in West 9.3 mph 9.3 mph 52 % 0.0 in 0.0 W/m2 CLR
03:21 23.8 °F 13.3 °F 1016.8 in WNW 5.6 mph 5.6 mph 52 % 0.0 in 0.0 W/m2 CLR
03:26 23.7 °F 13.2 °F 1016.8 in West 7.4 mph 7.4 mph 52 % 0.0 in 0.0 W/m2 CLR
03:31 23.6 °F 13.4 °F 1016.8 in Calm     53 % 0.0 in 0.0 W/m2 CLR
03:36 23.4 °F 13.0 °F 1016.8 in NW 5.6 mph 5.6 mph 52 % 0.0 in 0.0 W/m2 CLR
03:41 23.4 °F 13.3 °F 1016.8 in Calm     53 % 0.0 in 0.0 W/m2 CLR
03:46 23.3 °F 13.2 °F 1016.8 in Calm     53 % 0.0 in 0.0 W/m2 CLR
03:51 23.2 °F 13.4 °F 1016.8 in Calm     54 % 0.0 in 0.0 W/m2 CLR
03:56 23.1 °F 13.2 °F 1016.8 in Calm     54 % 0.0 in 0.0 W/m2 CLR
04:01 22.9 °F 13.1 °F 1017.2 in North 5.6 mph 5.6 mph 54 % 0.0 in 0.0 W/m2 CLR
04:06 22.8 °F 13.3 °F 1016.8 in Calm     55 % 0.0 in 0.0 W/m2 CLR
04:11 22.6 °F 13.4 °F 1016.8 in Calm     56 % 0.0 in 0.0 W/m2 CLR
04:16 22.4 °F 13.5 °F 1016.8 in Calm     57 % 0.0 in 0.0 W/m2 CLR
04:21 22.3 °F 13.3 °F 1016.8 in Calm     57 % 0.0 in 0.0 W/m2 CLR
04:26 22.0 °F 13.3 °F 1016.8 in Calm     58 % 0.0 in 0.0 W/m2 CLR
04:31 21.8 °F 13.4 °F 1016.8 in Calm     59 % 0.0 in 0.0 W/m2 CLR
04:36 21.7 °F 13.3 °F 1016.8 in Calm     59 % 0.0 in 0.0 W/m2 CLR
04:41 21.6 °F 13.4 °F 1017.2 in NW 6.4 mph 6.4 mph 60 % 0.0 in 0.0 W/m2 CLR
04:46 21.4 °F 13.3 °F 1016.8 in Calm     60 % 0.0 in 0.0 W/m2 CLR
04:51 21.4 °F 13.3 °F 1016.8 in Calm     60 % 0.0 in 0.0 W/m2 CLR
04:56 21.3 °F 13.2 °F 1016.8 in Calm     60 % 0.0 in 0.0 W/m2 CLR
05:01 21.3 °F 13.2 °F 1016.8 in Calm     60 % 0.0 in 0.0 W/m2 CLR
05:06 21.3 °F 13.2 °F 1016.8 in Calm     60 % 0.0 in 0.0 W/m2 CLR
05:11 21.2 °F 13.4 °F 1017.2 in Calm     61 % 0.0 in 0.0 W/m2 CLR
05:16 21.2 °F 13.3 °F 1017.2 in Calm     61 % 0.0 in 0.0 W/m2 CLR
05:21 21.1 °F 13.3 °F 1017.2 in Calm     61 % 0.0 in 0.0 W/m2 CLR
05:26 21.1 °F 13.2 °F 1017.2 in Calm     61 % 0.0 in 0.0 W/m2 CLR
05:31 21.0 °F 13.2 °F 1017.2 in Calm     61 % 0.0 in 0.0 W/m2 CLR
05:36 21.0 °F 13.4 °F 1017.2 in Calm     62 % 0.0 in 0.0 W/m2 CLR
05:41 20.9 °F 13.3 °F 1017.2 in West 4.8 mph 4.8 mph 62 % 0.0 in 0.0 W/m2 CLR
05:46 20.9 °F 13.1 °F 1017.2 in Calm     61 % 0.0 in 0.0 W/m2 CLR
05:51 20.9 °F 13.1 °F 1017.5 in Calm     61 % 0.0 in 0.0 W/m2 CLR
05:56 20.8 °F 13.1 °F 1017.5 in West 3.2 mph 3.2 mph 61 % 0.0 in 0.0 W/m2 CLR
06:01 20.8 °F 13.1 °F 1017.5 in WNW 9.3 mph 9.3 mph 61 % 0.0 in 0.0 W/m2 CLR
06:06 20.8 °F 13.1 °F 1017.5 in Calm     61 % 0.0 in 0.0 W/m2 CLR
06:11 20.8 °F 13.2 °F 1017.5 in Calm     62 % 0.0 in 0.0 W/m2 CLR
06:16 20.7 °F 13.2 °F 1017.5 in Calm     62 % 0.0 in 0.0 W/m2 CLR
06:21 20.7 °F 13.1 °F 1017.5 in Calm     62 % 0.0 in 0.0 W/m2 CLR
06:26 20.6 °F 13.1 °F 1017.5 in Calm     62 % 0.0 in 0.0 W/m2 CLR
06:31 20.5 °F 13.2 °F 1017.5 in Calm     63 % 0.0 in 0.0 W/m2 OVC
06:36 20.4 °F 13.1 °F 1017.8 in Calm     63 % 0.0 in 0.0 W/m2 OVC
06:41 20.3 °F 13.1 °F 1017.5 in Calm     63 % 0.0 in 0.0 W/m2 OVC
06:46 20.2 °F 13.2 °F 1017.5 in Calm     64 % 0.0 in 5.0 W/m2 OVC
06:51 20.2 °F 13.2 °F 1017.5 in Calm     64 % 0.0 in 11.0 W/m2 BKN
06:56 20.2 °F 13.1 °F 1017.5 in Calm     64 % 0.0 in 14.0 W/m2 BKN
07:01 20.2 °F 13.1 °F 1017.8 in Calm     64 % 0.0 in 21.0 W/m2 BKN
07:06 20.2 °F 13.1 °F 1017.8 in Calm     64 % 0.0 in 28.0 W/m2 BKN
07:11 20.2 °F 13.4 °F 1017.8 in Calm     65 % 0.0 in 33.0 W/m2 BKN
07:12 20.2 °F 13.4 °F 1017.8 in Calm     65 % 0.0 in 33.0 W/m2 BKN
07:17 20.2 °F 13.1 °F 1017.8 in Calm     64 % 0.0 in 39.0 W/m2 BKN
07:22 20.2 °F 13.2 °F 1017.8 in Calm     64 % 0.0 in 46.0 W/m2 SCT
07:27 20.3 °F 13.3 °F 1017.8 in Calm     64 % 0.0 in 56.0 W/m2 SCT
07:32 20.4 °F 13.3 °F 1017.8 in Calm     64 % 0.0 in 67.0 W/m2 FEW
07:37 20.4 °F 13.4 °F 1017.8 in Calm     64 % 0.0 in 77.0 W/m2 FEW
07:42 20.5 °F 13.4 °F 1017.8 in Calm     64 % 0.0 in 84.0 W/m2 FEW
07:47 20.5 °F 13.4 °F 1017.8 in Calm     64 % 0.0 in 90.0 W/m2 FEW
07:52 20.5 °F 13.4 °F 1017.8 in Calm     64 % 0.0 in 76.0 W/m2 FEW
07:57 20.6 °F 13.5 °F 1017.8 in NNW 4.8 mph 4.8 mph 64 % 0.0 in 116.0 W/m2 FEW
08:02 20.6 °F 13.1 °F 1017.8 in North 11.3 mph 11.3 mph 62 % 0.0 in 88.0 W/m2 CLR
08:07 20.7 °F 13.1 °F 1018.2 in NW 11.1 mph 11.1 mph 62 % 0.0 in 142.0 W/m2 CLR
08:12 20.7 °F 13.2 °F 1018.2 in Calm     62 % 0.0 in 111.0 W/m2 CLR
08:17 20.8 °F 13.2 °F 1018.2 in WNW 7.4 mph 7.4 mph 62 % 0.0 in 179.0 W/m2 CLR
08:22 20.9 °F 13.3 °F 1018.2 in WNW 7.4 mph 7.4 mph 62 % 0.0 in 107.0 W/m2 CLR
08:27 20.9 °F 13.3 °F 1018.2 in Calm     62 % 0.0 in 221.0 W/m2 CLR
08:32 20.9 °F 13.1 °F 1018.2 in NW 11.3 mph 11.3 mph 61 % 0.0 in 111.0 W/m2 CLR
08:37 20.9 °F 13.3 °F 1018.2 in NNW 14.8 mph 14.8 mph 62 % 0.0 in 141.0 W/m2 CLR
08:42 20.9 °F 13.4 °F 1018.2 in NW 14.8 mph 14.8 mph 62 % 0.0 in 271.0 W/m2 CLR
08:47 21.2 °F 13.3 °F 1018.2 in NNW 11.1 mph 11.1 mph 61 % 0.0 in 287.0 W/m2 CLR
08:52 21.4 °F 13.6 °F 1018.5 in NW 11.1 mph 11.1 mph 61 % 0.0 in 246.0 W/m2 CLR
08:57 21.6 °F 13.5 °F 1018.2 in NW 6.4 mph 6.4 mph 60 % 0.0 in 209.0 W/m2 CLR
09:02 21.6 °F 13.5 °F 1018.2 in NW 11.1 mph 11.1 mph 60 % 0.0 in 153.0 W/m2 CLR
09:07 21.5 °F 13.4 °F 1018.2 in NW 5.6 mph 5.6 mph 60 % 0.0 in 156.0 W/m2 CLR
09:12 21.4 °F 13.3 °F 1018.5 in NW 6.4 mph 6.4 mph 60 % 0.0 in 142.0 W/m2 CLR
09:17 21.3 °F 13.4 °F 1018.2 in NW 1.9 mph 1.9 mph 61 % 0.0 in 153.0 W/m2 CLR
09:22 21.3 °F 13.4 °F 1018.2 in Calm     61 % 0.0 in 155.0 W/m2 CLR
09:27 21.3 °F 13.4 °F 1018.5 in Calm     61 % 0.0 in 125.0 W/m2 CLR
09:32 21.3 °F 13.4 °F 1018.5 in NW 7.4 mph 7.4 mph 61 % 0.0 in 167.0 W/m2 CLR
09:37 21.4 °F 13.6 °F 1018.2 in Calm   0.2 mph 61 % 0.0 in 452.0 W/m2 CLR
09:42 21.7 °F 13.6 °F 1018.5 in NNW 9.3 mph 9.3 mph 60 % 0.0 in 455.0 W/m2 CLR
09:47 22.0 °F 13.9 °F 1018.2 in NW 6.4 mph 6.4 mph 60 % 0.0 in 471.0 W/m2 CLR
09:52 22.3 °F 13.9 °F 1018.2 in NW 6.4 mph 6.4 mph 59 % 0.0 in 485.0 W/m2 CLR
09:57 22.4 °F 14.1 °F 1018.2 in NNW 16.7 mph 16.7 mph 59 % 0.0 in 524.0 W/m2 CLR
10:02 22.7 °F 14.1 °F 1018.2 in WNW 7.4 mph 7.4 mph 58 % 0.0 in 469.0 W/m2 CLR
10:07 22.9 °F 13.9 °F 1018.2 in NW 9.3 mph 9.3 mph 57 % 0.0 in 563.0 W/m2 CLR
10:12 23.2 °F 13.9 °F 1018.2 in WNW 11.1 mph 11.1 mph 56 % 0.0 in 617.0 W/m2 CLR
10:17 23.2 °F 13.9 °F 1018.2 in NW 9.3 mph 9.3 mph 56 % 0.0 in 506.0 W/m2 CLR
10:22 23.1 °F 13.5 °F 1018.2 in Calm     55 % 0.0 in 374.0 W/m2 CLR
10:27 23.3 °F 13.8 °F 1018.2 in North 9.3 mph 9.3 mph 55 % 0.0 in 654.0 W/m2 CLR
10:32 23.4 °F 13.6 °F 1018.2 in NNE 3.7 mph 3.7 mph 54 % 0.0 in 197.0 W/m2 CLR
10:37 23.4 °F 13.8 °F 1018.2 in WNW 9.7 mph 9.7 mph 55 % 0.0 in 207.0 W/m2 CLR
10:42 23.2 °F 13.9 °F 1018.2 in WNW 11.1 mph 11.1 mph 56 % 0.0 in 297.0 W/m2 CLR
10:47 23.3 °F 14.0 °F 1018.2 in NNE 7.4 mph 7.4 mph 56 % 0.0 in 677.0 W/m2 CLR
10:53 23.5 °F 14.2 °F 1018.2 in NNW 11.1 mph 11.1 mph 56 % 0.0 in 715.0 W/m2 CLR
10:58 23.6 °F 13.8 °F 1018.2 in NNW 11.1 mph 11.1 mph 54 % 0.0 in 297.0 W/m2 CLR
11:03 23.6 °F 13.8 °F 1018.5 in NW 9.3 mph 9.3 mph 54 % 0.0 in 257.0 W/m2 CLR
11:05 23.6 °F 13.8 °F 1018.5 in NNW 1.9 mph   54 % 0.0 in 285.0 W/m2 CLR
11:10 23.8 °F 13.9 °F 1018.2 in NW 11.3 mph 11.3 mph 54 % 0.0 in 357.0 W/m2 CLR
11:15 23.9 °F 13.8 °F 1018.5 in NW 9.7 mph 9.7 mph 53 % 0.0 in 731.0 W/m2 CLR
11:20 23.8 °F 13.6 °F 1018.2 in West 16.7 mph 16.7 mph 53 % 0.0 in 469.0 W/m2 CLR
11:22 23.8 °F 13.6 °F 1018.2 in West 9.3 mph 9.3 mph 53 % 0.0 in 814.0 W/m2 CLR
11:27 23.9 °F 14.0 °F 1018.5 in WNW 13.0 mph 13.0 mph 54 % 0.0 in 851.0 W/m2 CLR
11:32 24.0 °F 13.6 °F 1018.5 in SW 18.5 mph 18.5 mph 52 % 0.0 in 278.0 W/m2 CLR
11:37 23.9 °F 13.7 °F 1018.2 in WNW 5.6 mph 5.6 mph 53 % 0.0 in 327.0 W/m2 CLR
11:42 24.0 °F 13.8 °F 1018.5 in NW 14.5 mph 14.5 mph 53 % 0.0 in 199.0 W/m2 CLR
11:47 24.2 °F 13.7 °F 1018.5 in WNW 17.7 mph 17.7 mph 52 % 0.0 in 863.0 W/m2 CLR
11:52 24.4 °F 14.2 °F 1018.2 in NW 3.7 mph   53 % 0.0 in 868.0 W/m2 CLR
11:57 24.6 °F 14.1 °F 1018.2 in NW 13.0 mph   52 % 0.0 in 408.0 W/m2 CLR
12:02 25.0 °F 14.2 °F 1017.8 in West 9.7 mph 9.7 mph 51 % 0.0 in 940.0 W/m2 CLR
12:07 25.3 °F 14.2 °F 1017.8 in NNW 11.1 mph 11.1 mph 50 % 0.0 in 983.0 W/m2 CLR
12:12 25.2 °F 14.1 °F 1018.5 in NW 14.8 mph 14.8 mph 50 % 0.0 in 294.0 W/m2 CLR
12:17 25.3 °F 14.2 °F 1017.8 in NNW 8.0 mph 8.0 mph 50 % 0.0 in 294.0 W/m2 CLR
12:22 25.7 °F 14.2 °F 1017.8 in NW 9.3 mph 9.3 mph 49 % 0.0 in 940.0 W/m2 CLR
12:27 25.7 °F 14.2 °F 1017.8 in NNE 7.4 mph 7.4 mph 49 % 0.0 in 942.0 W/m2 CLR
12:32 26.0 °F 14.4 °F 1017.8 in North 18.5 mph 18.5 mph 49 % 0.0 in 828.0 W/m2 CLR
12:37 26.1 °F 14.2 °F 1017.8 in NNE 3.7 mph 4.5 mph 48 % 0.0 in 550.0 W/m2 CLR
12:42 26.1 °F 14.2 °F 1018.2 in North 11.1 mph 11.1 mph 48 % 0.0 in 258.0 W/m2 CLR
12:47 25.9 °F 14.4 °F 1017.8 in NNE 16.7 mph 16.7 mph 49 % 0.0 in 868.0 W/m2 CLR
12:52 26.1 °F 14.2 °F 1017.8 in North 16.7 mph 16.7 mph 48 % 0.0 in 316.0 W/m2 CLR
12:57 26.0 °F 14.4 °F 1017.8 in North 9.3 mph 9.3 mph 49 % 0.0 in 988.0 W/m2 CLR
13:02 26.2 °F 14.3 °F 1017.8 in NNE 13.0 mph 13.0 mph 48 % 0.0 in 953.0 W/m2 CLR
13:07 26.4 °F 14.8 °F 1017.8 in Calm     49 % 0.0 in 868.0 W/m2 CLR
13:12 26.7 °F 14.8 °F 1017.8 in NW 11.3 mph 11.3 mph 48 % 0.0 in 958.0 W/m2 CLR
13:17 26.7 °F 14.4 °F 1017.5 in Calm     47 % 0.0 in 476.0 W/m2 CLR
13:22 27.0 °F 14.7 °F 1017.8 in NE 9.3 mph 9.3 mph 47 % 0.0 in 946.0 W/m2 CLR
13:27 27.2 °F 14.9 °F 1017.5 in Calm     47 % 0.0 in 965.0 W/m2 CLR
13:32 27.4 °F 14.7 °F 1017.5 in West 13.0 mph 13.0 mph 46 % 0.0 in 930.0 W/m2 CLR
13:37 27.4 °F 14.7 °F 1017.5 in West 1.9 mph 4.5 mph 46 % 0.0 in 944.0 W/m2 CLR
13:42 27.6 °F 14.9 °F 1017.5 in West 9.3 mph 9.3 mph 46 % 0.0 in 940.0 W/m2 CLR
13:47 27.8 °F 14.8 °F 1017.5 in Calm     45 % 0.0 in 949.0 W/m2 CLR
13:52 28.1 °F 15.1 °F 1017.2 in Calm     45 % 0.0 in 930.0 W/m2 CLR
13:57 28.3 °F 14.8 °F 1017.2 in Calm     44 % 0.0 in 946.0 W/m2 CLR
14:02 28.5 °F 15.4 °F 1017.2 in Calm     45 % 0.0 in 939.0 W/m2 CLR
14:07 28.6 °F 14.8 °F 1016.8 in NE 9.3 mph 9.3 mph 43 % 0.0 in 928.0 W/m2 CLR
14:12 28.4 °F 15.0 °F 1016.8 in North 5.6 mph 5.6 mph 44 % 0.0 in 926.0 W/m2 CLR
14:17 28.6 °F 15.2 °F 1016.8 in Calm     44 % 0.0 in 944.0 W/m2 CLR
14:22 28.8 °F 14.9 °F 1016.8 in Calm     43 % 0.0 in 923.0 W/m2 CLR
14:27 28.8 °F 15.0 °F 1016.8 in Calm     43 % 0.0 in 909.0 W/m2 CLR
14:32 28.9 °F 15.1 °F 1016.5 in Calm     43 % 0.0 in 953.0 W/m2 CLR
14:37 29.0 °F 15.2 °F 1016.5 in Calm     43 % 0.0 in 918.0 W/m2 CLR
14:42 29.3 °F 15.4 °F 1016.5 in Calm     43 % 0.0 in 895.0 W/m2 CLR
14:43 29.3 °F 15.4 °F 1016.5 in Calm     43 % 0.0 in 893.0 W/m2 CLR
14:48 29.4 °F 15.5 °F 1016.5 in ESE 1.6 mph   43 % 0.0 in 900.0 W/m2 CLR
14:53 29.5 °F 15.6 °F 1016.5 in NNE 7.4 mph 7.4 mph 43 % 0.0 in 884.0 W/m2 CLR
14:58 29.8 °F 15.2 °F 1016.1 in NNE 9.7 mph 9.7 mph 41 % 0.0 in 879.0 W/m2 CLR
15:03 30.0 °F 15.3 °F 1016.1 in ENE 9.3 mph 9.3 mph 41 % 0.0 in 879.0 W/m2 CLR
15:08 29.9 °F 15.2 °F 1016.1 in ENE 9.3 mph 9.3 mph 41 % 0.0 in 870.0 W/m2 CLR
15:13 29.9 °F 15.2 °F 1016.1 in NE 11.1 mph 11.1 mph 41 % 0.0 in 868.0 W/m2 CLR
15:18 30.2 °F 15.5 °F 1016.1 in East 12.9 mph 12.9 mph 41 % 0.0 in 867.0 W/m2 CLR
15:23 30.2 °F 15.5 °F 1016.1 in NNW 11.1 mph 11.1 mph 41 % 0.0 in 856.0 W/m2 CLR
15:28 30.6 °F 15.4 °F 1015.8 in North 8.0 mph 8.0 mph 40 % 0.0 in 851.0 W/m2 CLR
15:33 30.8 °F 15.2 °F 1015.8 in North 7.4 mph 7.4 mph 39 % 0.0 in 847.0 W/m2 CLR
15:38 30.9 °F 15.7 °F 1015.8 in Calm     40 % 0.0 in 833.0 W/m2 CLR
15:43 31.1 °F 15.5 °F 1015.8 in ENE 5.6 mph 5.6 mph 39 % 0.0 in 831.0 W/m2 CLR
15:48 31.3 °F 15.7 °F 1015.5 in Calm     39 % 0.0 in 824.0 W/m2 CLR
15:53 31.6 °F 15.5 °F 1015.5 in NE 11.1 mph 11.1 mph 38 % 0.0 in 816.0 W/m2 CLR
15:58 31.4 °F 15.4 °F 1015.5 in SE 1.9 mph 1.9 mph 38 % 0.0 in 807.0 W/m2 CLR
16:03 31.6 °F 15.9 °F 1015.5 in NNE 1.9 mph 1.9 mph 39 % 0.0 in 800.0 W/m2 CLR
16:06 31.7 °F 15.6 °F 1015.5 in NNE 7.4 mph   38 % 0.0 in 791.0 W/m2 CLR
16:08 31.8 °F 15.7 °F 1015.5 in ENE 5.6 mph 5.6 mph 38 % 0.0 in 789.0 W/m2 CLR
16:13 32.0 °F 15.5 °F 1015.5 in Calm     37 % 0.0 in 779.0 W/m2 CLR
16:18 31.9 °F 15.4 °F 1015.1 in Calm     37 % 0.0 in 772.0 W/m2 CLR
16:23 31.9 °F 15.4 °F 1015.1 in Calm     37 % 0.0 in 763.0 W/m2 CLR
16:28 32.2 °F 15.7 °F 1015.1 in North 12.9 mph 12.9 mph 37 % 0.0 in 749.0 W/m2 CLR
16:33 32.2 °F 15.6 °F 1015.1 in NE 14.8 mph 14.8 mph 37 % 0.0 in 740.0 W/m2 CLR
16:38 32.2 °F 15.6 °F 1015.1 in North 9.3 mph 9.3 mph 37 % 0.0 in 729.0 W/m2 CLR
16:43 32.6 °F 16.0 °F 1014.8 in NW 11.1 mph 11.1 mph 37 % 0.0 in 717.0 W/m2 CLR
16:48 32.8 °F 16.2 °F 1014.8 in NW 16.7 mph 16.7 mph 37 % 0.0 in 707.0 W/m2 CLR
16:53 32.7 °F 15.7 °F 1014.8 in Calm     36 % 0.0 in 701.0 W/m2 CLR
16:58 32.7 °F 15.7 °F 1014.8 in North 11.1 mph 11.1 mph 36 % 0.0 in 689.0 W/m2 CLR
17:03 32.7 °F 15.7 °F 1014.8 in North 16.7 mph 16.7 mph 36 % 0.0 in 677.0 W/m2 CLR
17:08 32.8 °F 15.7 °F 1014.8 in Calm     36 % 0.0 in 661.0 W/m2 CLR
17:13 33.0 °F 15.9 °F 1014.4 in NE 3.7 mph 3.7 mph 36 % 0.0 in 649.0 W/m2 CLR
17:18 33.1 °F 16.1 °F 1014.8 in Calm   0.8 mph 36 % 0.0 in 633.0 W/m2 CLR
17:23 33.3 °F 15.3 °F 1014.4 in NNE 13.0 mph 13.0 mph 34 % 0.0 in 624.0 W/m2 CLR
17:28 33.1 °F 15.2 °F 1014.4 in NNE 13.0 mph 13.0 mph 34 % 0.0 in 615.0 W/m2 CLR
17:33 32.8 °F 15.3 °F 1014.4 in ENE 11.3 mph 11.3 mph 35 % 0.0 in 598.0 W/m2 CLR
17:38 32.6 °F 15.6 °F 1014.4 in NNW 8.0 mph 8.0 mph 36 % 0.0 in 587.0 W/m2 CLR
17:43 32.9 °F 15.4 °F 1014.4 in NW 11.1 mph 11.1 mph 35 % 0.0 in 575.0 W/m2 CLR
17:48 32.9 °F 15.4 °F 1014.4 in NW 1.9 mph 1.9 mph 35 % 0.0 in 557.0 W/m2 CLR
17:53 33.2 °F 15.2 °F 1014.4 in NNW 5.6 mph 5.6 mph 34 % 0.0 in 543.0 W/m2 CLR
17:58 33.2 °F 14.7 °F 1014.4 in NNW 16.1 mph 16.1 mph 33 % 0.0 in 531.0 W/m2 CLR
18:03 32.8 °F 14.9 °F 1014.1 in North 11.1 mph 11.1 mph 34 % 0.0 in 519.0 W/m2 CLR
18:08 32.8 °F 14.8 °F 1014.1 in Calm     34 % 0.0 in 504.0 W/m2 CLR
18:13 32.9 °F 14.9 °F 1014.1 in North 11.1 mph 11.1 mph 34 % 0.0 in 487.0 W/m2 CLR
18:18 32.9 °F 14.6 °F 1014.1 in NNE 13.0 mph 13.0 mph 33 % 0.0 in 475.0 W/m2 CLR
18:23 32.8 °F 14.4 °F 1014.1 in North 18.5 mph 18.5 mph 33 % 0.0 in 457.0 W/m2 CLR
18:28 32.8 °F 14.4 °F 1014.1 in NNE 13.0 mph 13.0 mph 33 % 0.0 in 446.0 W/m2 CLR
18:33 32.7 °F 14.3 °F 1014.1 in NE 14.8 mph 14.8 mph 33 % 0.0 in 427.0 W/m2 CLR
18:38 32.7 °F 14.3 °F 1014.1 in NE 11.1 mph 11.1 mph 33 % 0.0 in 413.0 W/m2 CLR
18:43 32.7 °F 14.3 °F 1013.8 in NNE 3.2 mph 3.7 mph 33 % 0.0 in 399.0 W/m2 CLR
18:48 32.9 °F 14.1 °F 1014.1 in NNW 11.1 mph 11.1 mph 32 % 0.0 in 383.0 W/m2 CLR
18:53 32.8 °F 13.9 °F 1013.8 in NNE 9.7 mph 9.7 mph 32 % 0.0 in 366.0 W/m2 CLR
18:58 32.7 °F 13.9 °F 1014.1 in NNE 11.1 mph 11.1 mph 32 % 0.0 in 348.0 W/m2 CLR
19:03 32.8 °F 13.9 °F 1014.1 in NNE 13.0 mph 13.0 mph 32 % 0.0 in 332.0 W/m2 CLR
19:09 32.7 °F 13.8 °F 1014.1 in NNE 14.8 mph 14.8 mph 32 % 0.0 in 318.0 W/m2 CLR
19:14 32.6 °F 13.8 °F 1014.1 in NNW 11.1 mph 11.1 mph 32 % 0.0 in 304.0 W/m2 CLR
19:19 32.5 °F 13.7 °F 1014.1 in North 9.3 mph 9.3 mph 32 % 0.0 in 290.0 W/m2 CLR
19:24 32.4 °F 13.6 °F 1014.1 in North 14.8 mph 14.8 mph 32 % 0.0 in 272.0 W/m2 CLR
19:29 32.4 °F 14.1 °F 1014.1 in NNW 5.6 mph 5.6 mph 33 % 0.0 in 258.0 W/m2 CLR
19:34 32.5 °F 14.2 °F 1014.1 in North 5.6 mph 10.9 mph 33 % 0.0 in 244.0 W/m2 CLR
19:39 32.3 °F 13.9 °F 1014.1 in NE 13.0 mph 13.0 mph 33 % 0.0 in 230.0 W/m2 CLR
19:44 32.1 °F 14.3 °F 1014.1 in North 9.3 mph 9.3 mph 34 % 0.0 in 213.0 W/m2 CLR
19:49 32.2 °F 13.8 °F 1014.1 in North 11.1 mph 11.1 mph 33 % 0.0 in 199.0 W/m2 CLR
19:54 32.1 °F 14.3 °F 1014.1 in NNW 11.1 mph 11.1 mph 34 % 0.0 in 183.0 W/m2 CLR
19:59 32.0 °F 14.2 °F 1014.1 in NNW 1.6 mph   34 % 0.0 in 171.0 W/m2 CLR
20:04 31.9 °F 13.7 °F 1014.1 in NNW 13.0 mph 13.0 mph 33 % 0.0 in 153.0 W/m2 CLR
20:09 31.8 °F 14.0 °F 1014.1 in NNE 13.0 mph 13.0 mph 34 % 0.0 in 137.0 W/m2 CLR
20:14 31.7 °F 13.9 °F 1014.1 in NNW 3.7 mph 3.7 mph 34 % 0.0 in 123.0 W/m2 CLR
20:19 31.6 °F 13.8 °F 1014.4 in NNE 5.6 mph 5.6 mph 34 % 0.0 in 111.0 W/m2 CLR
20:24 31.5 °F 13.7 °F 1014.4 in NNW 7.4 mph 7.4 mph 34 % 0.0 in 98.0 W/m2 CLR
20:29 31.4 °F 13.7 °F 1014.4 in North 7.4 mph 7.4 mph 34 % 0.0 in 84.0 W/m2 CLR
20:34 31.3 °F 13.6 °F 1014.4 in Calm     34 % 0.0 in 74.0 W/m2 FEW
20:39 31.2 °F 13.5 °F 1014.4 in North 11.1 mph 11.1 mph 34 % 0.0 in 65.0 W/m2 FEW
20:44 31.0 °F 13.3 °F 1014.4 in North 11.3 mph 11.3 mph 34 % 0.0 in 56.0 W/m2 SCT
20:49 30.8 °F 13.2 °F 1014.4 in NNE 11.1 mph 11.1 mph 34 % 0.0 in 44.0 W/m2 SCT
20:54 30.7 °F 13.1 °F 1014.4 in Calm     34 % 0.0 in 39.0 W/m2 BKN
20:59 30.6 °F 13.4 °F 1014.4 in Calm     35 % 0.0 in 32.0 W/m2 BKN
21:04 30.6 °F 13.8 °F 1014.4 in Calm     36 % 0.0 in 26.0 W/m2 BKN
21:09 30.4 °F 13.2 °F 1014.4 in Calm     35 % 0.0 in 21.0 W/m2 BKN
21:14 30.2 °F 13.5 °F 1014.4 in Calm     36 % 0.0 in 18.0 W/m2 BKN
21:19 30.1 °F 13.3 °F 1014.8 in Calm     36 % 0.0 in 12.0 W/m2 BKN
21:24 29.8 °F 13.6 °F 1014.8 in Calm     37 % 0.0 in 9.0 W/m2 BKN
21:29 29.7 °F 13.4 °F 1014.8 in Calm     37 % 0.0 in 7.0 W/m2 BKN
21:34 29.5 °F 13.7 °F 1014.8 in Calm     38 % 0.0 in 0.0 W/m2 OVC
21:39 29.3 °F 13.9 °F 1014.8 in Calm     39 % 0.0 in 0.0 W/m2 OVC
21:44 29.1 °F 13.7 °F 1014.8 in Calm     39 % 0.0 in 0.0 W/m2 CLR
21:49 28.8 °F 13.8 °F 1014.8 in Calm     40 % 0.0 in 0.0 W/m2 CLR
21:54 28.5 °F 13.6 °F 1014.8 in Calm     40 % 0.0 in 0.0 W/m2 CLR
21:59 28.2 °F 14.1 °F 1014.8 in Calm     42 % 0.0 in 0.0 W/m2 CLR
22:04 27.9 °F 13.8 °F 1014.8 in NW 3.7 mph 3.7 mph 42 % 0.0 in 0.0 W/m2 CLR
22:09 27.7 °F 13.6 °F 1015.1 in WNW 13.0 mph 13.0 mph 42 % 0.0 in 0.0 W/m2 CLR
22:14 27.8 °F 13.7 °F 1015.1 in NNW 7.4 mph 7.4 mph 42 % 0.0 in 0.0 W/m2 CLR
22:19 27.7 °F 13.6 °F 1015.1 in NW 5.6 mph 5.6 mph 42 % 0.0 in 0.0 W/m2 CLR
22:24 27.4 °F 13.4 °F 1015.5 in NW 5.6 mph 5.6 mph 42 % 0.0 in 0.0 W/m2 CLR
22:29 27.4 °F 12.6 °F 1015.5 in NW 18.5 mph 18.5 mph 40 % 0.0 in 0.0 W/m2 CLR
22:34 27.7 °F 12.5 °F 1015.5 in NW 11.1 mph 11.1 mph 39 % 0.0 in 0.0 W/m2 CLR
22:39 27.7 °F 12.1 °F 1015.8 in NNW 7.4 mph 7.4 mph 38 % 0.0 in 0.0 W/m2 CLR
22:44 27.6 °F 11.6 °F 1015.8 in NW 5.6 mph 5.6 mph 37 % 0.0 in 0.0 W/m2 CLR
22:49 27.4 °F 11.4 °F 1015.8 in NNW 7.4 mph 7.4 mph 37 % 0.0 in 0.0 W/m2 CLR
22:54 27.2 °F 11.6 °F 1015.8 in NW 16.1 mph 16.1 mph 38 % 0.0 in 0.0 W/m2 CLR
22:59 26.9 °F 11.4 °F 1016.1 in WNW 14.8 mph 14.8 mph 38 % 0.0 in 0.0 W/m2 CLR
23:04 26.7 °F 11.6 °F 1016.1 in NNW 22.5 mph 22.5 mph 39 % 0.0 in 0.0 W/m2 CLR
23:09 26.4 °F 11.4 °F 1016.5 in NNW 13.0 mph 13.0 mph 39 % 0.0 in 0.0 W/m2 CLR
23:14 26.2 °F 11.6 °F 1016.5 in NW 1.9 mph 1.9 mph 40 % 0.0 in 0.0 W/m2 CLR
23:19 26.1 °F 11.4 °F 1016.5 in WNW 9.3 mph   40 % 0.0 in 0.0 W/m2 CLR
23:24 25.9 °F 11.6 °F 1016.8 in Calm     41 % 0.0 in 0.0 W/m2 CLR
23:29 25.7 °F 11.8 °F 1016.8 in NNW 5.6 mph   42 % 0.0 in 0.0 W/m2 CLR
23:34 25.6 °F 11.7 °F 1016.8 in WNW 3.7 mph 3.7 mph 42 % 0.0 in 0.0 W/m2 CLR
23:39 25.6 °F 11.7 °F 1016.8 in Calm     42 % 0.0 in 0.0 W/m2 CLR
23:44 25.4 °F 11.6 °F 1016.8 in WNW 6.4 mph   42 % 0.0 in 0.0 W/m2 CLR
23:49 25.2 °F 11.7 °F 1017.2 in NNW 7.4 mph 7.4 mph 43 % 0.0 in 0.0 W/m2 CLR
23:54 25.0 °F 11.6 °F 1017.2 in Calm     43 % 0.0 in 0.0 W/m2 CLR
23:59 24.8 °F 11.7 °F 1017.2 in Calm     44 % 0.0 in 0.0 W/m2 CLR
Lo Temps de Massalio
Compliments of Weather Underground - 1.25 mb